Time;durP1;ratioP1;P1;durP2;ratioP2;P2;SDS_P1;SDS_P2;PMS_P1;PMS_P2;Temp;Humidity;BMP_temperature;BMP_pressure;BME280_temperature;BME280_humidity;BME280_pressure;Samples;Min_cycle;Max_cycle;Signal;HPM_P1;HPM_P2
2023/06/11 00:02:05;;;;;;;10.07;8.35;;;;;;;17.70;51.90;101292.13;7394309;19;20489;-68
2023/06/11 00:04:34;;;;;;;13.00;7.88;;;;;;;17.66;52.24;101295.00;7394083;19;20019;-68
2023/06/11 00:07:05;;;;;;;11.88;8.45;;;;;;;17.62;52.28;101288.09;7395860;19;20046;-70
2023/06/11 00:09:34;;;;;;;11.50;8.20;;;;;;;17.57;52.57;101297.09;7395375;19;20506;-68
2023/06/11 00:12:02;;;;;;;12.95;9.50;;;;;;;17.53;52.71;101297.31;7396163;19;20108;-69
2023/06/11 00:14:33;;;;;;;11.68;9.57;;;;;;;17.47;52.88;101297.56;7394225;19;20028;-69
2023/06/11 00:17:02;;;;;;;12.13;8.18;;;;;;;17.43;53.10;101296.81;7394187;19;20029;-69
2023/06/11 00:19:30;;;;;;;9.15;8.00;;;;;;;17.38;53.33;101297.00;7395466;19;20026;-69
2023/06/11 00:22:02;;;;;;;13.90;8.57;;;;;;;17.31;53.50;101290.22;7393740;19;20041;-69
2023/06/11 00:24:31;;;;;;;9.80;8.18;;;;;;;17.30;53.59;101298.25;7393390;19;20057;-69
2023/06/11 00:27:01;;;;;;;11.27;7.60;;;;;;;17.24;53.45;101297.56;7393692;19;20009;-69
2023/06/11 00:29:30;;;;;;;8.70;7.72;;;;;;;17.20;53.69;101303.94;7395245;19;20021;-69
2023/06/11 00:32:01;;;;;;;13.60;8.80;;;;;;;17.17;53.55;101312.00;7395219;19;20022;-69
2023/06/11 00:34:29;;;;;;;12.25;8.55;;;;;;;17.12;53.33;101308.66;7393253;19;20357;-69
2023/06/11 00:36:59;;;;;;;9.38;7.47;;;;;;;17.08;53.22;101309.72;7395087;19;20010;-69
2023/06/11 00:39:28;;;;;;;11.93;7.82;;;;;;;17.05;53.28;101307.22;7395025;19;20031;-69
2023/06/11 00:41:57;;;;;;;8.63;7.28;;;;;;;17.02;53.43;101310.84;7393188;19;20078;-69
2023/06/11 00:44:25;;;;;;;7.88;7.07;;;;;;;16.97;53.30;101306.66;7392997;19;20011;-69
2023/06/11 00:46:56;;;;;;;10.93;7.75;;;;;;;16.94;53.49;101311.13;7394856;19;20070;-69
2023/06/11 00:49:27;;;;;;;9.38;7.65;;;;;;;16.89;53.21;101312.22;7394194;19;20039;-69
2023/06/11 00:51:55;;;;;;;8.98;7.03;;;;;;;16.85;53.35;101311.47;7395156;19;20024;-69
2023/06/11 00:54:25;;;;;;;10.35;7.90;;;;;;;16.81;53.12;101309.88;7398582;19;20086;-69
2023/06/11 00:56:54;;;;;;;9.85;7.95;;;;;;;16.76;53.39;101303.88;7401868;19;20437;-69
2023/06/11 00:59:25;;;;;;;13.50;7.25;;;;;;;16.71;53.03;101317.31;7402099;19;20014;-69
2023/06/11 01:01:59;;;;;;;9.13;7.22;;;;;;;16.68;53.44;101313.91;7398932;19;20066;-69
2023/06/11 01:04:32;;;;;;;8.75;6.65;;;;;;;16.66;53.09;101313.13;7399519;19;20015;-69
2023/06/11 01:07:05;;;;;;;8.10;7.20;;;;;;;16.61;52.95;101311.47;7401522;19;20021;-69
2023/06/11 01:09:35;;;;;;;7.30;6.60;;;;;;;16.59;52.83;101313.34;7401898;19;20453;-69
2023/06/11 01:12:04;;;;;;;8.43;5.60;;;;;;;16.57;52.39;101320.47;7402136;19;20027;-69
2023/06/11 01:14:33;;;;;;;11.85;6.72;;;;;;;16.54;52.42;101317.97;7399365;19;20018;-68
2023/06/11 01:17:05;;;;;;;7.78;6.60;;;;;;;16.52;52.14;101314.50;7398332;19;20082;-67
2023/06/11 01:19:58;;;;;;;6.63;5.72;;;;;;;16.49;51.86;101314.63;7401388;19;20014;-68
2023/06/11 01:22:33;;;;;;;8.68;5.63;;;;;;;16.47;51.86;101315.56;7399563;19;20028;-68
2023/06/11 01:25:20;;;;;;;9.43;6.78;;;;;;;16.43;51.72;101320.16;7401663;19;20018;-68
2023/06/11 01:28:17;;;;;;;8.98;6.25;;;;;;;16.40;52.13;101317.59;7398941;19;20020;-68
2023/06/11 01:30:55;;;;;;;9.82;6.10;;;;;;;16.36;52.18;101316.84;7400395;19;20033;-67
2023/06/11 01:33:26;;;;;;;7.93;6.80;;;;;;;16.35;52.10;101325.72;7399569;19;20015;-68
2023/06/11 01:35:57;;;;;;;7.65;6.43;;;;;;;16.30;52.18;101319.72;7400574;19;20400;-68
2023/06/11 01:38:30;;;;;;;10.68;6.00;;;;;;;16.29;51.94;101331.25;7397867;19;20361;-68
2023/06/11 01:40:59;;;;;;;7.72;5.47;;;;;;;16.25;52.01;101334.91;7400609;19;20027;-68
2023/06/11 01:43:31;;;;;;;7.18;6.30;;;;;;;16.21;51.77;101328.84;7399403;19;20039;-67
2023/06/11 01:46:00;;;;;;;16.60;6.53;;;;;;;16.19;51.77;101324.53;7400256;19;20374;-68
2023/06/11 01:48:28;;;;;;;9.15;6.20;;;;;;;16.15;51.57;101329.09;7400466;19;20082;-68
2023/06/11 01:50:56;;;;;;;7.05;6.32;;;;;;;16.15;51.47;101330.84;7400329;19;20079;-68
2023/06/11 01:53:25;;;;;;;9.60;5.93;;;;;;;16.11;51.26;101327.44;7399145;19;20018;-67
2023/06/11 01:55:55;;;;;;;8.32;5.97;;;;;;;16.10;51.28;101328.41;7400140;19;20074;-68
2023/06/11 01:58:23;;;;;;;7.10;6.22;;;;;;;16.06;51.15;101334.69;7399696;19;20015;-68
2023/06/11 02:00:54;;;;;;;7.20;5.78;;;;;;;16.03;50.75;101332.16;7399815;19;20160;-68
2023/06/11 02:03:23;;;;;;;9.15;5.55;;;;;;;15.99;50.92;101335.84;7398269;19;20079;-67
2023/06/11 02:05:51;;;;;;;7.28;5.38;;;;;;;15.96;50.82;101340.31;7399821;19;20015;-68
2023/06/11 02:08:19;;;;;;;5.82;4.72;;;;;;;15.93;50.84;101335.13;7397074;19;20014;-68
2023/06/11 02:10:48;;;;;;;8.85;5.30;;;;;;;15.89;50.98;101333.50;7399718;19;20035;-68
2023/06/11 02:13:17;;;;;;;6.38;5.53;;;;;;;15.85;51.29;101341.63;7398795;19;20042;-67
2023/06/11 02:15:46;;;;;;;9.45;6.10;;;;;;;15.82;51.20;101339.06;7399181;19;20006;-68
2023/06/11 02:18:17;;;;;;;9.25;5.90;;;;;;;15.78;51.61;101340.91;7399411;19;20033;-68
2023/06/11 02:20:45;;;;;;;7.13;5.55;;;;;;;15.76;51.61;101348.06;7399352;19;20364;-68
2023/06/11 02:23:14;;;;;;;7.45;5.55;;;;;;;15.72;51.51;101344.66;7396860;19;20019;-67
2023/06/11 02:25:42;;;;;;;7.07;5.20;;;;;;;15.67;51.62;101343.94;7398490;19;20094;-68
2023/06/11 02:28:11;;;;;;;6.13;5.50;;;;;;;15.61;51.78;101338.84;7399595;19;20202;-68
2023/06/11 02:30:39;;;;;;;8.40;6.47;;;;;;;15.57;51.79;101334.56;7399059;19;20021;-68
2023/06/11 02:33:08;;;;;;;8.52;6.50;;;;;;;15.53;52.11;101335.56;7397945;19;20010;-67
2023/06/11 02:35:39;;;;;;;6.55;5.68;;;;;;;15.48;52.21;101338.41;7398909;19;20083;-68
2023/06/11 02:38:07;;;;;;;7.22;5.95;;;;;;;15.44;52.28;101342.91;7398906;19;20414;-68
2023/06/11 02:40:35;;;;;;;9.40;5.65;;;;;;;15.40;52.40;101337.75;7398379;19;20021;-68
2023/06/11 02:43:04;;;;;;;7.93;5.47;;;;;;;15.37;52.21;101335.25;7396134;19;20021;-67
2023/06/11 02:45:32;;;;;;;7.85;6.30;;;;;;;15.32;52.40;101338.03;7398702;19;20070;-68
2023/06/11 02:48:01;;;;;;;8.38;5.38;;;;;;;15.28;52.24;101345.19;7398569;19;20089;-68
2023/06/11 02:50:29;;;;;;;8.77;5.80;;;;;;;15.25;52.35;101352.34;7397957;19;20018;-68
2023/06/11 02:53:00;;;;;;;7.05;5.53;;;;;;;15.20;52.65;101348.97;7397680;19;20017;-67
2023/06/11 02:55:29;;;;;;;9.30;5.13;;;;;;;15.17;52.45;101359.66;7398781;19;20070;-68
2023/06/11 02:57:57;;;;;;;7.25;6.07;;;;;;;15.14;52.45;101353.53;7395844;19;20557;-67
2023/06/11 03:00:26;;;;;;;7.72;5.80;;;;;;;15.12;52.90;101354.50;7397734;19;20011;-68
2023/06/11 03:02:54;;;;;;;8.45;6.50;;;;;;;15.09;52.56;101351.94;7397119;19;20015;-67
2023/06/11 03:05:23;;;;;;;10.35;5.35;;;;;;;15.05;52.65;101355.59;7397910;19;20015;-67
2023/06/11 03:07:51;;;;;;;8.52;5.60;;;;;;;15.02;52.80;101359.19;7397547;19;20014;-68
2023/06/11 03:10:23;;;;;;;8.38;5.60;;;;;;;14.99;53.02;101352.22;7397942;19;20036;-68
2023/06/11 03:12:52;;;;;;;12.30;5.65;;;;;;;14.96;53.05;101354.97;7396842;19;20494;-67
2023/06/11 03:15:20;;;;;;;8.25;5.40;;;;;;;14.94;53.07;101359.44;7395506;19;20019;-68
2023/06/11 03:17:49;;;;;;;7.80;5.78;;;;;;;14.90;52.90;101356.91;7397536;19;20029;-68
2023/06/11 03:20:17;;;;;;;8.75;5.80;;;;;;;14.87;53.34;101362.31;7397044;19;20492;-68
2023/06/11 03:23:07;;;;;;;7.20;5.47;;;;;;;14.82;53.47;101360.69;7395729;19;20019;-67
2023/06/11 03:25:52;;;;;;;8.75;5.45;;;;;;;14.78;53.38;101363.44;7396544;19;20039;-68
2023/06/11 03:28:21;;;;;;;5.97;5.10;;;;;;;14.75;53.20;101371.47;7396873;19;20549;-68
2023/06/11 03:30:49;;;;;;;7.72;5.43;;;;;;;14.69;53.71;101367.22;7396659;19;20028;-68
2023/06/11 03:33:18;;;;;;;8.60;5.47;;;;;;;14.68;53.46;101377.84;7396305;19;20011;-68
2023/06/11 03:35:46;;;;;;;8.55;5.53;;;;;;;14.65;53.74;101374.38;7396593;19;20085;-68
2023/06/11 03:38:15;;;;;;;7.28;5.20;;;;;;;14.64;53.80;101377.91;7396379;19;20091;-68
2023/06/11 03:40:46;;;;;;;7.57;5.55;;;;;;;14.62;53.88;101373.53;7396480;19;20017;-68
2023/06/11 03:43:14;;;;;;;9.15;5.43;;;;;;;14.61;54.01;101371.84;7394723;19;20031;-68
2023/06/11 03:45:43;;;;;;;8.13;5.05;;;;;;;14.59;53.86;101374.50;7396556;19;20436;-68
2023/06/11 03:48:11;;;;;;;13.80;5.75;;;;;;;14.60;54.12;101380.66;7396465;19;20039;-68
2023/06/11 03:50:40;;;;;;;8.43;4.68;;;;;;;14.59;54.20;101379.78;7396292;19;20035;-68
2023/06/11 03:53:08;;;;;;;5.75;4.50;;;;;;;14.60;54.16;101384.16;7395358;19;20380;-68
2023/06/11 03:55:37;;;;;;;8.55;4.65;;;;;;;14.58;54.03;101377.19;7396298;19;20022;-68
2023/06/11 03:58:08;;;;;;;6.60;4.82;;;;;;;14.60;54.06;101376.25;7396215;19;20035;-68
2023/06/11 04:00:36;;;;;;;6.25;4.88;;;;;;;14.61;54.37;101387.69;7396572;19;20028;-68
2023/06/11 04:03:05;;;;;;;6.65;4.70;;;;;;;14.61;54.35;101385.91;7394725;19;20032;-67
2023/06/11 04:05:37;;;;;;;7.55;4.93;;;;;;;14.59;54.50;101382.41;7395767;19;20068;-68
2023/06/11 04:08:06;;;;;;;7.45;5.10;;;;;;;14.62;54.52;101387.63;7396288;19;20007;-68
2023/06/11 04:10:35;;;;;;;7.57;5.38;;;;;;;14.63;54.66;101399.06;7395927;19;20019;-68
2023/06/11 04:13:03;;;;;;;5.82;4.70;;;;;;;14.62;54.67;101398.19;7394972;19;20015;-68
2023/06/11 04:15:34;;;;;;;8.73;4.95;;;;;;;14.64;54.76;101390.22;7395712;19;20014;-68
2023/06/11 04:18:03;;;;;;;6.65;4.53;;;;;;;14.65;54.85;101395.50;7396041;19;20022;-69
2023/06/11 04:20:31;;;;;;;5.05;4.07;;;;;;;14.65;55.04;101392.84;7395454;19;20014;-68
2023/06/11 04:23:00;;;;;;;6.00;4.60;;;;;;;14.65;54.80;101394.63;7393210;19;20549;-68
2023/06/11 04:25:31;;;;;;;8.10;5.15;;;;;;;14.66;55.06;101402.50;7395019;19;20060;-68
2023/06/11 04:27:59;;;;;;;11.63;4.60;;;;;;;14.68;55.01;101398.97;7393111;19;20094;-68
2023/06/11 04:30:28;;;;;;;6.72;4.47;;;;;;;14.70;55.12;101402.41;7395270;19;20027;-68
2023/06/11 04:33:03;;;;;;;7.95;5.07;;;;;;;14.72;55.44;101403.25;7394805;19;20023;-68
2023/06/11 04:35:34;;;;;;;12.80;6.20;;;;;;;14.72;55.55;101401.47;7395584;19;20022;-68
2023/06/11 04:38:03;;;;;;;8.07;5.45;;;;;;;14.77;55.50;101398.69;7394761;19;20498;-68
2023/06/11 04:40:33;;;;;;;6.53;4.28;;;;;;;14.79;55.37;101397.72;7394602;19;20502;-68
2023/06/11 04:43:02;;;;;;;7.25;4.53;;;;;;;14.82;55.44;101397.66;7392915;19;20018;-68
2023/06/11 04:45:33;;;;;;;7.25;4.35;;;;;;;14.85;55.42;101399.34;7394926;19;20019;-68
2023/06/11 04:48:05;;;;;;;7.93;5.05;;;;;;;14.87;55.60;101399.28;7394490;19;20428;-68
2023/06/11 04:50:37;;;;;;;6.70;4.28;;;;;;;14.90;55.78;101394.78;7394116;19;20018;-68
2023/06/11 04:53:05;;;;;;;6.25;4.35;;;;;;;14.95;55.50;101394.63;7393644;19;20367;-67
2023/06/11 04:55:37;;;;;;;7.35;3.70;;;;;;;14.99;55.71;101398.94;7394510;19;20018;-68
2023/06/11 04:58:06;;;;;;;6.78;3.67;;;;;;;15.03;55.78;101400.56;7394893;19;20026;-68
2023/06/11 05:00:35;;;;;;;9.80;4.15;;;;;;;15.07;55.50;101396.06;7394307;19;20010;-68
2023/06/11 05:03:06;;;;;;;5.18;4.13;;;;;;;15.11;55.62;101398.59;7392612;19;20481;-67
2023/06/11 05:05:35;;;;;;;4.75;4.18;;;;;;;15.15;55.64;101397.56;7393971;19;20498;-68
2023/06/11 05:08:03;;;;;;;5.93;3.83;;;;;;;15.19;55.89;101397.47;7393843;19;20485;-68
2023/06/11 05:10:32;;;;;;;5.30;3.42;;;;;;;15.22;55.75;101395.59;7394204;19;20025;-68
2023/06/11 05:13:00;;;;;;;6.78;3.80;;;;;;;15.27;55.61;101393.66;7393286;19;20028;-67
2023/06/11 05:15:29;;;;;;;7.78;3.90;;;;;;;15.32;55.79;101404.09;7394076;19;20431;-68
2023/06/11 05:17:58;;;;;;;12.07;5.10;;;;;;;15.36;55.77;101402.25;7393706;19;20014;-68
2023/06/11 05:20:30;;;;;;;4.57;3.97;;;;;;;15.40;55.45;101399.44;7393585;19;20500;-68
2023/06/11 05:23:02;;;;;;;6.97;3.67;;;;;;;15.44;55.52;101401.09;7392624;19;20015;-67
2023/06/11 05:25:31;;;;;;;7.95;4.15;;;;;;;15.48;55.57;101402.72;7393535;19;20489;-68
2023/06/11 05:28:02;;;;;;;6.60;3.45;;;;;;;15.53;55.62;101399.94;7392098;19;20010;-68
2023/06/11 05:30:33;;;;;;;6.60;3.50;;;;;;;15.59;55.43;101399.72;7391997;19;20015;-68
2023/06/11 05:33:02;;;;;;;6.85;3.50;;;;;;;15.64;55.59;101400.44;7392557;19;20481;-66
2023/06/11 05:35:33;;;;;;;3.75;3.20;;;;;;;15.69;55.46;101395.00;7393425;19;20046;-67
2023/06/11 05:38:03;;;;;;;5.07;3.20;;;;;;;15.75;55.20;101396.59;7391201;19;20565;-67
2023/06/11 05:40:32;;;;;;;3.60;3.08;;;;;;;15.80;55.33;101392.00;7399629;19;20031;-67
2023/06/11 05:43:00;;;;;;;8.90;3.42;;;;;;;15.87;55.06;101403.28;7399329;19;20039;-67
2023/06/11 05:45:29;;;;;;;6.43;3.88;;;;;;;15.92;55.03;101396.03;7399685;19;20085;-67
2023/06/11 05:47:57;;;;;;;4.82;3.85;;;;;;;15.98;55.28;101401.13;7397766;19;20031;-68
2023/06/11 05:50:26;;;;;;;3.45;2.92;;;;;;;16.05;54.97;101399.13;7400075;19;20435;-68
2023/06/11 05:52:57;;;;;;;4.57;3.35;;;;;;;16.10;55.11;101399.88;7400128;19;20027;-68
2023/06/11 05:55:26;;;;;;;4.45;2.92;;;;;;;16.18;54.97;101402.25;7398025;19;20027;-68
2023/06/11 05:57:54;;;;;;;6.95;3.13;;;;;;;16.24;54.67;101402.88;7400105;19;20036;-68
2023/06/11 06:00:23;;;;;;;7.20;3.67;;;;;;;16.32;54.22;101399.97;7399443;19;20015;-68
2023/06/11 06:02:51;;;;;;;12.07;4.38;;;;;;;16.39;54.26;101404.13;7398520;19;20018;-67
2023/06/11 06:05:20;;;;;;;5.30;3.15;;;;;;;16.47;53.74;101403.84;7399894;19;20018;-66
2023/06/11 06:07:48;;;;;;;6.25;2.92;;;;;;;16.56;53.56;101410.59;7397350;19;20035;-68
2023/06/11 06:10:19;;;;;;;7.85;2.90;;;;;;;16.64;53.32;101410.31;7397332;19;20018;-67
2023/06/11 06:12:48;;;;;;;4.30;2.50;;;;;;;16.71;53.19;101411.84;7399396;19;20014;-68
2023/06/11 06:15:16;;;;;;;7.47;3.17;;;;;;;16.78;53.00;101408.91;7396882;19;20419;-68
2023/06/11 06:17:45;;;;;;;7.55;2.90;;;;;;;16.87;53.05;101402.38;7399484;19;20018;-67
2023/06/11 06:20:14;;;;;;;4.55;3.00;;;;;;;16.97;52.64;101410.00;7396998;19;20022;-67
2023/06/11 06:22:42;;;;;;;4.88;3.13;;;;;;;17.05;52.41;101395.53;7397025;19;20011;-68
2023/06/11 06:25:15;;;;;;;5.15;3.15;;;;;;;17.14;52.54;101404.09;7399483;19;20018;-68
2023/06/11 06:28:00;;;;;;;4.07;3.05;;;;;;;17.22;52.17;101397.53;7396510;19;20375;-70
2023/06/11 06:30:28;;;;;;;6.47;2.95;;;;;;;17.30;51.70;101407.84;7399563;19;20014;-70
2023/06/11 06:32:57;;;;;;;5.75;2.67;;;;;;;17.35;51.24;101403.22;7398129;19;20389;-70
2023/06/11 06:35:25;;;;;;;6.03;3.25;;;;;;;17.40;51.36;101395.06;7398769;19;20023;-70
2023/06/11 06:37:54;;;;;;;7.60;3.28;;;;;;;17.48;51.36;101400.06;7396850;19;20035;-69
2023/06/11 06:40:23;;;;;;;8.25;3.10;;;;;;;17.53;51.15;101401.63;7398569;19;20025;-70
2023/06/11 06:42:54;;;;;;;5.18;2.95;;;;;;;17.60;50.84;101402.22;7397505;19;20014;-69
2023/06/11 06:45:22;;;;;;;5.70;3.08;;;;;;;17.66;50.43;101391.38;7396243;19;20038;-69
2023/06/11 06:47:51;;;;;;;6.88;2.92;;;;;;;17.72;50.67;101399.06;7397888;19;20038;-69
2023/06/11 06:50:20;;;;;;;4.57;2.83;;;;;;;17.80;50.51;101401.41;7396133;19;20022;-69
2023/06/11 06:52:49;;;;;;;4.30;3.00;;;;;;;17.86;50.06;101403.81;7397788;19;20027;-70
2023/06/11 06:55:17;;;;;;;3.92;2.75;;;;;;;17.95;49.81;101407.91;7396019;19;20026;-69
2023/06/11 06:57:46;;;;;;;8.00;3.60;;;;;;;18.03;49.96;101408.44;7398005;19;20043;-70
2023/06/11 07:00:19;;;;;;;6.07;3.08;;;;;;;18.13;49.48;101410.72;7397890;19;20015;-70
2023/06/11 07:02:48;;;;;;;6.47;3.10;;;;;;;18.21;49.45;101412.09;7398009;19;20018;-70
2023/06/11 07:05:17;;;;;;;6.53;2.67;;;;;;;18.28;49.21;101404.72;7397724;19;20029;-70
2023/06/11 07:07:45;;;;;;;6.40;3.30;;;;;;;18.36;48.75;101407.91;7395145;19;20486;-70
2023/06/11 07:10:14;;;;;;;6.65;3.17;;;;;;;18.44;48.31;101409.34;7397501;19;20035;-70
2023/06/11 07:12:42;;;;;;;5.20;2.92;;;;;;;18.48;48.51;101414.47;7397258;19;20019;-69
2023/06/11 07:15:12;;;;;;;6.40;2.92;;;;;;;18.58;48.35;101403.44;7397584;19;20031;-68
2023/06/11 07:17:43;;;;;;;4.13;2.65;;;;;;;18.66;48.04;101411.94;7397441;19;20027;-69
2023/06/11 07:20:12;;;;;;;7.15;2.90;;;;;;;18.74;48.21;101404.50;7397415;19;20060;-69
2023/06/11 07:22:41;;;;;;;7.18;3.08;;;;;;;18.83;47.76;101405.84;7394971;19;20039;-69
2023/06/11 07:25:11;;;;;;;4.15;3.00;;;;;;;18.92;47.99;101407.25;7396831;19;20019;-69
2023/06/11 07:27:47;;;;;;;5.47;3.42;;;;;;;19.00;47.15;101405.09;7395406;19;20014;-69
2023/06/11 07:30:16;;;;;;;3.78;3.10;;;;;;;19.10;47.30;101397.56;7394562;19;20389;-68
2023/06/11 07:32:47;;;;;;;6.25;3.45;;;;;;;19.18;47.02;101403.34;7395860;19;20015;-68
2023/06/11 07:35:16;;;;;;;4.82;2.88;;;;;;;19.26;47.17;101403.00;7396552;19;20066;-71
2023/06/11 07:37:45;;;;;;;6.63;3.22;;;;;;;19.33;47.08;101407.09;7394511;19;20014;-69
2023/06/11 07:40:15;;;;;;;8.80;3.47;;;;;;;19.41;46.87;101406.72;7396667;19;20021;-67
2023/06/11 07:42:44;;;;;;;9.25;4.40;;;;;;;19.49;46.60;101405.41;7394477;19;20022;-69
2023/06/11 07:45:13;;;;;;;4.43;3.30;;;;;;;19.57;46.66;101407.69;7396389;19;20014;-68
2023/06/11 07:47:42;;;;;;;9.40;4.63;;;;;;;19.64;46.82;101405.63;7394877;19;20022;-71
2023/06/11 07:50:13;;;;;;;9.27;3.83;;;;;;;19.72;46.54;101395.44;7395832;19;20007;-69
2023/06/11 07:52:42;;;;;;;5.35;3.20;;;;;;;19.81;46.19;101402.94;7396496;19;20035;-68
2023/06/11 07:55:12;;;;;;;8.50;3.70;;;;;;;19.89;45.99;101402.63;7395914;19;20380;-68
2023/06/11 07:57:41;;;;;;;5.38;3.58;;;;;;;19.98;46.38;101403.91;7394290;19;20023;-69
2023/06/11 08:00:12;;;;;;;6.38;3.20;;;;;;;20.06;46.09;101401.75;7394298;19;20054;-69
2023/06/11 08:02:42;;;;;;;7.07;3.65;;;;;;;20.15;45.69;101400.41;7394913;19;20018;-68
2023/06/11 08:05:17;;;;;;;6.30;3.20;;;;;;;20.22;45.75;101400.94;7393988;19;20022;-68
2023/06/11 08:07:45;;;;;;;3.65;2.97;;;;;;;20.30;45.52;101404.09;7395385;19;20011;-68
2023/06/11 08:10:14;;;;;;;7.68;4.18;;;;;;;20.38;45.20;101398.34;7395965;19;20018;-67
2023/06/11 08:12:44;;;;;;;5.50;3.40;;;;;;;20.43;45.31;101396.31;7395459;19;20025;-68
2023/06/11 08:15:12;;;;;;;6.10;3.38;;;;;;;20.50;45.43;101395.88;7395498;19;20545;-69
2023/06/11 08:17:41;;;;;;;6.78;3.47;;;;;;;20.57;45.17;101392.91;7393758;19;20018;-67
2023/06/11 08:20:13;;;;;;;6.50;3.53;;;;;;;20.66;44.99;101395.06;7395475;19;20018;-68
2023/06/11 08:22:42;;;;;;;6.35;3.50;;;;;;;20.75;45.37;101393.72;7394665;19;20024;-68
2023/06/11 08:25:12;;;;;;;5.03;2.88;;;;;;;20.83;45.16;101395.03;7393576;19;20018;-68
2023/06/11 08:27:40;;;;;;;4.05;3.22;;;;;;;20.92;44.72;101395.50;7394433;19;20017;-68
2023/06/11 08:30:10;;;;;;;8.10;3.45;;;;;;;21.01;44.69;101394.97;7393261;19;20015;-67
2023/06/11 08:32:39;;;;;;;5.32;3.22;;;;;;;21.13;44.61;101396.13;7394898;19;20026;-68
2023/06/11 08:35:08;;;;;;;6.18;3.55;;;;;;;21.21;44.28;101395.69;7394698;19;20032;-67
2023/06/11 08:37:39;;;;;;;5.32;3.00;;;;;;;21.28;44.04;101387.25;7392794;19;20010;-68
2023/06/11 08:40:11;;;;;;;9.68;3.50;;;;;;;21.35;43.96;101390.41;7394409;19;20023;-68
2023/06/11 08:42:39;;;;;;;4.93;3.03;;;;;;;21.42;43.65;101393.56;7393489;19;20034;-68
2023/06/11 08:45:09;;;;;;;11.63;4.78;;;;;;;21.48;43.87;101390.56;7392762;19;20549;-68
2023/06/11 08:47:41;;;;;;;4.68;3.75;;;;;;;21.54;43.48;101389.38;7394571;19;20023;-67
2023/06/11 08:50:10;;;;;;;6.47;3.65;;;;;;;21.60;43.46;101389.88;7394170;19;20015;-68
2023/06/11 08:52:44;;;;;;;4.45;3.13;;;;;;;21.68;43.17;101391.25;7393810;19;20034;-68
2023/06/11 08:55:13;;;;;;;6.70;3.13;;;;;;;21.76;43.11;101389.00;7391762;19;20490;-68
2023/06/11 08:57:41;;;;;;;5.88;3.42;;;;;;;21.84;43.29;101389.41;7393973;19;20040;-68
2023/06/11 09:00:12;;;;;;;6.85;3.60;;;;;;;21.92;43.29;101394.28;7392296;19;20117;-68
2023/06/11 09:02:41;;;;;;;8.45;3.28;;;;;;;21.97;43.04;101393.06;7392574;19;20018;-68
2023/06/11 09:05:11;;;;;;;10.23;3.08;;;;;;;22.02;42.47;101383.91;7391906;19;20035;-68
2023/06/11 09:07:50;;;;;;;8.90;3.50;;;;;;;22.10;42.10;101390.53;7393681;19;20584;-68
2023/06/11 09:10:20;;;;;;;14.63;5.72;;;;;;;22.18;42.52;101390.06;7394217;19;20019;-68
2023/06/11 09:12:49;;;;;;;8.25;5.18;;;;;;;22.26;42.23;101384.25;7391721;19;20023;-68
2023/06/11 09:15:20;;;;;;;12.80;5.32;;;;;;;22.34;41.92;101376.59;7399276;19;20380;-68
2023/06/11 09:17:49;;;;;;;13.68;4.75;;;;;;;22.41;41.26;101379.81;7401375;19;20015;-68
2023/06/11 09:20:18;;;;;;;9.93;4.72;;;;;;;22.50;40.93;101379.22;7398066;19;20435;-68
2023/06/11 09:22:51;;;;;;;10.88;4.95;;;;;;;22.60;40.69;101372.34;7400806;19;20019;-68
2023/06/11 09:25:19;;;;;;;5.77;3.67;;;;;;;22.69;40.27;101375.41;7398835;19;20019;-68
2023/06/11 09:27:49;;;;;;;6.97;3.72;;;;;;;22.74;40.34;101371.47;7400246;19;20003;-67
2023/06/11 09:30:19;;;;;;;8.48;5.00;;;;;;;22.81;40.76;101379.13;7401424;19;20010;-69
2023/06/11 09:32:49;;;;;;;7.38;4.05;;;;;;;22.88;40.45;101375.94;7400283;19;20015;-70
2023/06/11 09:35:18;;;;;;;13.25;4.35;;;;;;;22.97;39.99;101373.66;7400600;19;20018;-67
2023/06/11 09:37:51;;;;;;;7.45;4.18;;;;;;;23.06;39.52;101365.03;7400408;19;20432;-69
2023/06/11 09:40:23;;;;;;;7.50;3.75;;;;;;;23.15;39.42;101369.81;7400206;19;20386;-68
2023/06/11 09:42:52;;;;;;;4.78;3.85;;;;;;;23.21;38.28;101361.38;7400354;19;20035;-68
2023/06/11 09:45:23;;;;;;;5.90;3.65;;;;;;;23.28;38.51;101353.81;7398292;19;20010;-68
2023/06/11 09:47:51;;;;;;;6.95;3.85;;;;;;;23.36;38.11;101356.84;7398287;19;20089;-69
2023/06/11 09:50:21;;;;;;;9.27;4.22;;;;;;;23.46;37.75;101365.13;7399719;19;20098;-67
2023/06/11 09:52:53;;;;;;;9.02;3.78;;;;;;;23.55;37.87;101360.97;7397004;19;20011;-68
2023/06/11 09:55:26;;;;;;;6.03;3.87;;;;;;;23.63;37.50;101353.25;7397590;19;20025;-69
2023/06/11 09:57:56;;;;;;;10.82;4.25;;;;;;;23.68;37.24;101353.84;7399558;19;20343;-68
2023/06/11 10:00:24;;;;;;;16.48;10.88;;;;;;;23.75;36.90;101351.59;7399511;19;20357;-68
2023/06/11 10:02:53;;;;;;;12.25;6.60;;;;;;;23.83;36.65;101353.75;7396622;19;20015;-67
2023/06/11 10:05:22;;;;;;;9.90;7.32;;;;;;;23.84;36.52;101345.59;7396121;19;20109;-68
2023/06/11 10:07:59;;;;;;;5.82;4.30;;;;;;;23.93;36.37;101357.53;7399137;19;20046;-68
2023/06/11 10:10:30;;;;;;;7.43;5.07;;;;;;;23.99;36.30;101354.44;7397044;19;20022;-69
2023/06/11 10:12:58;;;;;;;18.42;11.18;;;;;;;24.05;36.40;101354.00;7396915;19;20022;-69
2023/06/11 10:15:27;;;;;;;6.40;4.72;;;;;;;24.15;36.38;101356.94;7396416;19;20422;-68
2023/06/11 10:17:56;;;;;;;7.78;4.75;;;;;;;24.22;36.11;101349.31;7398907;19;20040;-68
2023/06/11 10:20:31;;;;;;;12.30;7.10;;;;;;;24.29;35.84;101347.03;7398724;19;20022;-68
2023/06/11 10:23:12;;;;;;;7.90;4.28;;;;;;;24.37;35.24;101345.53;7398442;19;20014;-69
2023/06/11 10:25:42;;;;;;;5.47;4.35;;;;;;;24.46;34.89;101343.19;7395953;19;20023;-69
2023/06/11 10:28:13;;;;;;;7.82;4.22;;;;;;;24.54;34.23;101338.09;7396805;19;20015;-69
2023/06/11 10:30:41;;;;;;;13.70;5.03;;;;;;;24.63;33.86;101348.19;7398801;19;20019;-68
2023/06/11 10:33:10;;;;;;;8.57;4.38;;;;;;;24.75;32.78;101343.78;7397479;19;20014;-68
2023/06/11 10:35:38;;;;;;;6.15;3.95;;;;;;;24.86;32.23;101349.22;7396668;19;20015;-69
2023/06/11 10:38:15;;;;;;;5.35;3.83;;;;;;;25.01;31.23;101341.88;7398040;19;20022;-69
2023/06/11 10:40:45;;;;;;;7.75;5.97;;;;;;;25.15;31.05;101332.81;7397525;19;20394;-69
2023/06/11 10:43:19;;;;;;;5.50;4.35;;;;;;;25.27;30.77;101338.25;7395765;19;20018;-69
2023/06/11 10:45:48;;;;;;;6.80;4.47;;;;;;;25.39;30.81;101344.53;7395532;19;20010;-69
2023/06/11 10:48:17;;;;;;;6.05;4.93;;;;;;;25.51;30.83;101333.72;7395612;19;20022;-69
2023/06/11 10:50:46;;;;;;;6.03;5.07;;;;;;;25.65;31.80;101337.19;7395563;19;20018;-69
2023/06/11 10:53:17;;;;;;;8.05;5.10;;;;;;;25.80;31.91;101344.06;7395230;19;20026;-68
2023/06/11 10:55:47;;;;;;;5.60;5.10;;;;;;;25.93;31.89;101337.75;7395765;19;20018;-69
2023/06/11 10:58:23;;;;;;;6.75;5.43;;;;;;;26.08;31.53;101352.72;7397265;19;20018;-68
2023/06/11 11:00:54;;;;;;;11.00;5.50;;;;;;;26.21;31.68;101341.00;7397564;19;20015;-68
2023/06/11 11:03:24;;;;;;;9.65;5.00;;;;;;;26.32;31.85;101341.88;7395374;19;20074;-68
2023/06/11 11:05:53;;;;;;;6.55;4.93;;;;;;;26.43;31.54;101332.94;7395246;19;20019;-68
2023/06/11 11:08:24;;;;;;;6.38;4.93;;;;;;;26.48;31.13;101332.59;7396951;19;20018;-68
2023/06/11 11:10:56;;;;;;;5.70;5.00;;;;;;;26.54;31.57;101334.78;7397309;19;20047;-70
2023/06/11 11:13:25;;;;;;;8.27;4.85;;;;;;;26.63;31.63;101325.13;7394273;19;20031;-67
2023/06/11 11:15:53;;;;;;;8.30;5.45;;;;;;;26.72;31.71;101328.91;7397144;19;20035;-67
2023/06/11 11:18:22;;;;;;;5.32;4.82;;;;;;;26.81;31.13;101341.63;7397276;19;20022;-67
2023/06/11 11:20:53;;;;;;;5.38;4.75;;;;;;;26.92;31.65;101317.38;7394320;19;20019;-68
2023/06/11 11:23:25;;;;;;;5.63;5.13;;;;;;;27.05;30.74;101310.97;7394239;19;20426;-68
2023/06/11 11:25:55;;;;;;;5.15;4.65;;;;;;;27.14;30.85;101316.44;7394260;19;20483;-67
2023/06/11 11:28:23;;;;;;;5.72;4.90;;;;;;;27.21;30.96;101315.94;7395259;19;20034;-68
2023/06/11 11:30:54;;;;;;;5.50;4.75;;;;;;;27.31;30.83;101309.66;7396168;19;20019;-67
2023/06/11 11:33:22;;;;;;;9.75;5.35;;;;;;;27.45;30.44;101313.06;7395463;19;20018;-67
2023/06/11 11:35:53;;;;;;;7.07;5.43;;;;;;;27.62;30.42;101314.31;7393698;19;20035;-68
2023/06/11 11:38:25;;;;;;;5.20;4.70;;;;;;;27.83;30.27;101300.81;7394476;19;20023;-67